Terminal Aerodrome Forecast
Issued by NWS

Home | Current Version | Previous Version | Text Only | Print | Product List | Glossary On
Versions: 1 2 3 4 5 6 7 8 9 10 11 12 13 14 15 16 17 18 19 20 21 22 23 24
218
FTUS43 KDLH 300535
TAFHYR
TAF
KHYR 300535Z 3006/3106 29010KT P6SM SCT025 OVC040
     FM300700 28010KT P6SM BKN025
     FM301200 30012KT P6SM VCSH BKN015
     FM301500 29012G18KT P6SM VCSH OVC015
     FM310000 30009KT P6SM OVC025=

USA.gov is the U.S. government's official web portal to all federal, state and local government web resources and services.